Terminal Aerodrome Forecast
Issued by NWS Birmingham, AL

Home | Current Version | Previous Version | Text Only | Print | Product List | Glossary On
Versions: 1 2 3 4 5 6 7 8 9 10 11 12 13 14 15 16 17 18 19 20 21 22 23 24 25
000
FTUS44 KBMX 261727
TAFBHM
TAF
KBHM 261727Z 2618/2718 19007KT P6SM VCTS BKN045CB
     FM270000 19004KT P6SM SCT100 BKN250
     FM270600 14003KT 4SM BR OVC007
     FM271300 10006KT P6SM VCSH BKN015=

USA.gov is the U.S. government's official web portal to all federal, state and local government web resources and services.